Time;durP1;ratioP1;P1;durP2;ratioP2;P2;SDS_P1;SDS_P2;PMS_P1;PMS_P2;Temp;Humidity;BMP_temperature;BMP_pressure;BME280_temperature;BME280_humidity;BME280_pressure;Samples;Min_cycle;Max_cycle;Signal;HPM_P1;HPM_P2
2021/09/16 00:00:02;;;;;;;2.37;0.77;;;20.10;99.90;;;;;;5068854;28;20570;-77
2021/09/16 00:02:38;;;;;;;1.77;0.90;;;20.10;99.90;;;;;;5062738;28;21148;-78
2021/09/16 00:05:04;;;;;;;2.23;0.90;;;20.00;99.90;;;;;;5062882;28;20590;-78
2021/09/16 00:07:30;;;;;;;2.43;0.77;;;20.00;99.90;;;;;;5061112;28;20606;-78
2021/09/16 00:09:55;;;;;;;2.70;1.03;;;20.00;99.90;;;;;;5058608;28;20567;-78
2021/09/16 00:12:21;;;;;;;3.80;0.90;;;20.00;99.90;;;;;;5054992;28;20197;-77
2021/09/16 00:14:50;;;;;;;2.13;0.90;;;20.00;99.90;;;;;;5063131;28;20165;-78
2021/09/16 00:17:16;;;;;;;2.53;0.70;;;19.90;99.90;;;;;;5049674;28;20189;-77
2021/09/16 00:19:42;;;;;;;1.97;0.80;;;19.90;99.90;;;;;;5050836;28;20572;-77
2021/09/16 00:22:07;;;;;;;5.43;0.90;;;19.90;99.90;;;;;;5050995;28;21130;-77
2021/09/16 00:24:33;;;;;;;3.37;0.67;;;19.80;99.90;;;;;;5051953;28;20653;-77
2021/09/16 00:26:59;;;;;;;2.50;0.80;;;19.80;99.90;;;;;;5053126;28;20177;-77
2021/09/16 00:29:25;;;;;;;1.43;0.70;;;19.80;99.90;;;;;;5052923;28;20248;-77
2021/09/16 00:31:50;;;;;;;1.30;0.60;;;19.70;99.90;;;;;;5053207;28;20705;-77
2021/09/16 00:34:16;;;;;;;1.60;0.60;;;19.70;99.90;;;;;;5054556;28;20172;-77
2021/09/16 00:36:42;;;;;;;2.60;0.83;;;19.70;99.90;;;;;;5054126;28;20161;-78
2021/09/16 00:39:07;;;;;;;2.20;0.60;;;19.60;99.90;;;;;;5054158;28;20234;-77
2021/09/16 00:41:33;;;;;;;2.10;0.70;;;19.50;99.90;;;;;;5052900;28;20264;-77
2021/09/16 00:43:59;;;;;;;1.90;0.63;;;19.50;99.90;;;;;;5054205;28;20576;-78
2021/09/16 00:46:26;;;;;;;2.33;0.90;;;19.40;99.90;;;;;;5054082;28;20180;-77
2021/09/16 00:48:52;;;;;;;2.97;0.70;;;19.40;99.90;;;;;;5052532;28;20196;-76
2021/09/16 00:51:17;;;;;;;2.53;0.80;;;19.30;99.90;;;;;;5060853;28;20575;-76
2021/09/16 00:53:44;;;;;;;3.90;0.90;;;19.30;99.90;;;;;;5053523;28;20970;-75
2021/09/16 00:56:11;;;;;;;1.50;0.73;;;19.10;99.90;;;;;;5053870;28;20555;-76
2021/09/16 00:58:39;;;;;;;2.23;1.23;;;19.10;99.90;;;;;;5053522;28;20615;-76
2021/09/16 01:01:06;;;;;;;3.60;0.70;;;19.00;99.90;;;;;;5035954;28;20567;-76
2021/09/16 01:03:32;;;;;;;1.73;0.70;;;18.90;99.90;;;;;;5053959;28;20931;-76
2021/09/16 01:05:58;;;;;;;2.57;0.70;;;18.80;99.90;;;;;;5036038;28;20583;-76
2021/09/16 01:08:25;;;;;;;2.50;0.60;;;18.80;99.90;;;;;;5053247;28;20606;-76
2021/09/16 01:10:51;;;;;;;1.80;0.60;;;18.70;99.90;;;;;;5053814;28;20602;-76
2021/09/16 01:13:17;;;;;;;3.00;0.73;;;18.60;99.90;;;;;;5053501;28;20607;-77
2021/09/16 01:15:46;;;;;;;2.13;0.67;;;18.50;99.90;;;;;;5053811;28;20560;-76
2021/09/16 01:18:12;;;;;;;1.73;0.60;;;18.40;99.90;;;;;;5053036;28;20642;-77
2021/09/16 01:20:38;;;;;;;3.00;0.70;;;18.40;99.90;;;;;;5053556;28;20605;-76
2021/09/16 01:23:04;;;;;;;2.70;0.50;;;18.30;99.90;;;;;;5053368;28;20755;-77
2021/09/16 01:25:32;;;;;;;3.10;0.60;;;18.30;99.90;;;;;;5053704;28;20571;-77
2021/09/16 01:27:59;;;;;;;3.60;1.10;;;18.20;99.90;;;;;;5057226;28;20713;-76
2021/09/16 01:30:26;;;;;;;1.50;0.70;;;18.10;99.90;;;;;;5053393;28;20555;-76
2021/09/16 01:32:55;;;;;;;2.50;0.70;;;18.10;99.90;;;;;;5053199;28;20614;-78
2021/09/16 01:35:21;;;;;;;4.13;0.80;;;18.00;99.90;;;;;;5053032;28;20559;-76
2021/09/16 01:37:48;;;;;;;2.40;0.70;;;17.90;99.90;;;;;;5051547;28;20583;-76
2021/09/16 01:40:14;;;;;;;1.40;0.60;;;17.90;99.90;;;;;;5052946;28;20572;-76
2021/09/16 01:42:41;;;;;;;3.03;0.83;;;17.90;99.90;;;;;;5052981;28;20657;-76
2021/09/16 01:45:23;;;;;;;1.80;0.63;;;17.80;99.90;;;;;;5035117;28;20571;-76
2021/09/16 01:47:50;;;;;;;2.90;0.70;;;17.80;99.90;;;;;;5052638;28;20599;-76
2021/09/16 01:50:18;;;;;;;1.83;0.70;;;17.80;99.90;;;;;;5052901;28;20564;-76
2021/09/16 01:52:44;;;;;;;5.10;1.43;;;17.70;99.90;;;;;;5053478;28;20626;-76
2021/09/16 01:55:10;;;;;;;2.40;0.60;;;17.70;99.90;;;;;;5035063;28;20559;-76
2021/09/16 01:57:37;;;;;;;2.57;0.70;;;17.70;99.90;;;;;;5052212;28;20197;-76
2021/09/16 02:00:04;;;;;;;4.03;1.30;;;17.70;99.90;;;;;;5052680;28;20587;-76
2021/09/16 02:02:38;;;;;;;2.93;0.80;;;17.60;99.90;;;;;;5052921;28;20623;-76
2021/09/16 02:05:04;;;;;;;2.23;0.70;;;17.60;99.90;;;;;;5056692;28;20590;-76
2021/09/16 02:07:30;;;;;;;1.83;0.70;;;17.60;99.90;;;;;;5034129;28;20657;-76
2021/09/16 02:09:56;;;;;;;3.47;0.83;;;17.60;99.90;;;;;;5034590;28;20584;-77
2021/09/16 02:12:21;;;;;;;5.70;0.80;;;17.50;99.90;;;;;;5052787;28;20231;-77
2021/09/16 02:14:47;;;;;;;2.40;0.83;;;17.50;99.90;;;;;;5052303;28;20165;-76
2021/09/16 02:17:13;;;;;;;2.90;0.80;;;17.50;99.90;;;;;;5052221;28;20185;-77
2021/09/16 02:19:39;;;;;;;3.03;0.60;;;17.50;99.90;;;;;;5051726;28;20180;-77
2021/09/16 02:22:04;;;;;;;2.67;0.80;;;17.40;99.90;;;;;;5052333;28;20218;-77
2021/09/16 02:24:30;;;;;;;3.60;0.90;;;17.40;99.90;;;;;;5052400;28;20168;-76
2021/09/16 02:26:56;;;;;;;3.53;0.60;;;17.40;99.90;;;;;;5052130;28;20242;-77
2021/09/16 02:29:21;;;;;;;2.37;0.80;;;17.30;99.90;;;;;;5051962;28;20218;-77
2021/09/16 02:31:47;;;;;;;3.10;0.70;;;17.30;99.90;;;;;;5034206;28;20176;-77
2021/09/16 02:34:13;;;;;;;2.30;0.80;;;17.30;99.90;;;;;;5052382;28;20176;-77
2021/09/16 02:36:39;;;;;;;1.73;0.70;;;17.20;99.90;;;;;;5052103;28;20169;-77
2021/09/16 02:39:04;;;;;;;2.63;0.80;;;17.20;99.90;;;;;;5033798;28;20254;-77
2021/09/16 02:41:30;;;;;;;1.90;0.83;;;17.20;99.90;;;;;;5056330;28;20176;-77
2021/09/16 02:43:56;;;;;;;5.50;0.87;;;17.10;99.90;;;;;;5052359;28;21166;-77
2021/09/16 02:46:22;;;;;;;4.10;0.90;;;17.10;99.90;;;;;;5034682;28;20173;-77
2021/09/16 02:48:48;;;;;;;2.40;0.80;;;17.10;99.90;;;;;;5034313;28;20262;-77
2021/09/16 02:51:13;;;;;;;2.90;1.27;;;17.10;99.90;;;;;;5053421;28;20172;-77
2021/09/16 02:53:39;;;;;;;1.70;0.60;;;17.10;99.90;;;;;;5062787;28;20562;-77
2021/09/16 02:56:05;;;;;;;3.47;1.20;;;17.00;99.90;;;;;;5051891;28;20617;-77
2021/09/16 02:58:31;;;;;;;4.53;1.17;;;17.00;99.90;;;;;;5051131;28;20629;-77
2021/09/16 03:00:57;;;;;;;2.67;0.70;;;17.00;99.90;;;;;;5034102;28;20584;-77
2021/09/16 03:03:22;;;;;;;3.00;1.47;;;17.00;99.90;;;;;;5051814;28;20161;-76
2021/09/16 03:05:48;;;;;;;2.93;0.90;;;16.90;99.90;;;;;;5051801;28;20176;-77
2021/09/16 03:08:14;;;;;;;2.43;0.77;;;16.90;99.90;;;;;;5051095;28;20279;-77
2021/09/16 03:10:40;;;;;;;4.63;0.87;;;16.90;99.90;;;;;;5034019;28;20200;-77
2021/09/16 03:13:06;;;;;;;2.50;1.10;;;16.90;99.90;;;;;;5051987;28;20200;-77
2021/09/16 03:15:32;;;;;;;2.90;1.40;;;16.90;99.90;;;;;;5051703;28;20568;-78
2021/09/16 03:17:57;;;;;;;2.17;1.00;;;16.80;99.90;;;;;;5057596;28;20944;-77
2021/09/16 03:20:23;;;;;;;2.70;0.90;;;16.80;99.90;;;;;;5051933;28;20567;-77
2021/09/16 03:22:49;;;;;;;4.17;1.10;;;16.80;99.90;;;;;;5051665;28;20200;-77
2021/09/16 03:25:15;;;;;;;3.77;0.93;;;16.80;99.90;;;;;;5051326;28;20169;-77
2021/09/16 03:27:41;;;;;;;3.87;0.90;;;16.90;99.90;;;;;;5050968;28;20657;-78
2021/09/16 03:30:11;;;;;;;2.37;0.90;;;16.90;99.90;;;;;;5033426;28;20563;-77
2021/09/16 03:32:37;;;;;;;5.10;1.60;;;16.90;99.90;;;;;;5051434;28;20715;-78
2021/09/16 03:35:03;;;;;;;8.20;0.90;;;17.00;99.90;;;;;;5017052;28;20647;-77
2021/09/16 03:37:28;;;;;;;3.30;0.93;;;17.00;99.90;;;;;;5050974;28;20189;-77
2021/09/16 03:39:54;;;;;;;2.53;0.90;;;17.00;99.90;;;;;;5033248;28;20578;-77
2021/09/16 03:42:21;;;;;;;4.93;1.07;;;16.90;99.90;;;;;;5051498;28;20173;-77
2021/09/16 03:44:47;;;;;;;5.30;1.47;;;17.00;99.90;;;;;;5033242;28;20575;-78
2021/09/16 03:47:14;;;;;;;2.63;1.03;;;17.00;99.90;;;;;;5051200;28;20595;-78
2021/09/16 03:49:40;;;;;;;3.00;1.10;;;17.00;99.90;;;;;;5049713;28;20632;-78
2021/09/16 03:52:07;;;;;;;7.57;2.27;;;16.90;99.90;;;;;;5049853;28;20666;-77
2021/09/16 03:54:34;;;;;;;3.77;2.00;;;16.90;99.90;;;;;;5055803;28;20571;-78
2021/09/16 03:57:01;;;;;;;1.90;1.40;;;16.90;99.90;;;;;;5050943;28;21145;-77
2021/09/16 03:59:26;;;;;;;3.90;1.70;;;16.90;99.90;;;;;;5051100;28;20563;-77
2021/09/16 04:01:52;;;;;;;3.63;2.60;;;16.90;99.90;;;;;;5036538;28;20590;-77
2021/09/16 04:04:18;;;;;;;2.30;1.83;;;16.80;99.90;;;;;;5054403;28;20207;-77
2021/09/16 04:06:43;;;;;;;5.87;2.63;;;16.80;99.90;;;;;;5036038;28;20554;-77
2021/09/16 04:09:09;;;;;;;3.60;2.37;;;16.90;99.90;;;;;;5053919;28;20161;-77
2021/09/16 04:11:35;;;;;;;4.33;2.40;;;16.90;99.90;;;;;;5054111;28;20250;-77
2021/09/16 04:14:00;;;;;;;5.63;1.93;;;16.90;99.90;;;;;;5054409;28;20193;-77
2021/09/16 04:16:26;;;;;;;5.60;2.40;;;17.00;99.90;;;;;;5020289;28;20169;-77
2021/09/16 04:18:52;;;;;;;6.53;3.17;;;17.00;99.90;;;;;;5054482;28;21006;-77
2021/09/16 04:21:18;;;;;;;7.23;2.90;;;17.00;99.90;;;;;;5054725;28;20161;-77
2021/09/16 04:23:44;;;;;;;3.57;2.60;;;17.10;99.90;;;;;;5054678;28;21121;-77
2021/09/16 04:26:10;;;;;;;5.23;2.10;;;17.20;99.90;;;;;;5054396;28;20660;-77
2021/09/16 04:28:35;;;;;;;4.30;2.13;;;17.20;99.90;;;;;;5036364;28;20615;-77
2021/09/16 04:31:02;;;;;;;2.43;1.90;;;17.20;99.90;;;;;;5040824;28;20173;-77
2021/09/16 04:33:27;;;;;;;2.43;1.57;;;17.20;99.90;;;;;;5053319;28;20200;-77
2021/09/16 04:35:53;;;;;;;3.77;2.57;;;17.30;99.90;;;;;;5054531;28;20575;-77
2021/09/16 04:38:19;;;;;;;3.07;1.93;;;17.40;99.90;;;;;;5019423;28;20219;-78
2021/09/16 04:40:44;;;;;;;3.10;2.03;;;17.40;99.90;;;;;;5036499;28;20181;-77
2021/09/16 04:43:10;;;;;;;3.47;2.13;;;17.40;99.90;;;;;;5054249;28;20230;-77
2021/09/16 04:45:36;;;;;;;2.93;1.90;;;17.50;99.90;;;;;;5054363;28;20180;-77
2021/09/16 04:48:02;;;;;;;3.60;2.00;;;17.50;99.90;;;;;;5036167;28;20642;-77
2021/09/16 04:50:27;;;;;;;6.67;2.50;;;17.50;99.90;;;;;;5054237;28;20169;-78
2021/09/16 04:52:53;;;;;;;4.57;2.17;;;17.50;99.90;;;;;;5041502;28;20204;-78
2021/09/16 04:55:19;;;;;;;3.50;3.20;;;17.50;99.90;;;;;;5054836;28;20560;-77
2021/09/16 04:57:45;;;;;;;3.90;2.70;;;17.40;99.90;;;;;;5035695;28;20207;-78
2021/09/16 05:00:11;;;;;;;3.53;2.40;;;17.40;99.90;;;;;;5054148;28;20672;-78
2021/09/16 05:02:37;;;;;;;4.20;2.83;;;17.30;99.90;;;;;;5053896;28;20176;-78
2021/09/16 05:05:04;;;;;;;5.57;2.47;;;17.30;99.90;;;;;;5036158;28;20579;-78
2021/09/16 05:07:30;;;;;;;3.80;2.43;;;17.20;99.90;;;;;;5057117;28;20599;-78
2021/09/16 05:09:56;;;;;;;5.23;2.20;;;17.20;99.90;;;;;;5055846;28;20576;-78
2021/09/16 05:12:22;;;;;;;3.60;2.40;;;17.10;99.90;;;;;;5052499;28;20197;-77
2021/09/16 05:14:47;;;;;;;3.80;2.27;;;17.10;99.90;;;;;;5053820;28;20169;-78
2021/09/16 05:17:13;;;;;;;4.33;2.20;;;17.10;99.90;;;;;;5035633;28;20189;-78
2021/09/16 05:19:39;;;;;;;4.00;2.90;;;17.10;99.90;;;;;;5053907;28;20165;-77
2021/09/16 05:22:04;;;;;;;4.40;2.13;;;17.00;99.90;;;;;;5053973;28;20173;-78
2021/09/16 05:24:30;;;;;;;4.27;2.97;;;17.00;99.90;;;;;;5053538;28;20679;-78
2021/09/16 05:26:57;;;;;;;8.73;2.47;;;17.00;99.90;;;;;;5035793;28;20588;-78
2021/09/16 05:29:23;;;;;;;4.57;2.80;;;16.90;99.90;;;;;;5052122;28;20958;-77
2021/09/16 05:31:49;;;;;;;3.77;2.37;;;16.90;99.90;;;;;;5053187;28;20576;-77
2021/09/16 05:34:14;;;;;;;3.20;2.07;;;16.90;99.90;;;;;;5053242;28;20204;-78
2021/09/16 05:36:40;;;;;;;5.50;2.70;;;16.80;99.90;;;;;;5053219;28;20306;-77
2021/09/16 05:39:06;;;;;;;5.77;2.10;;;16.80;99.90;;;;;;5034802;28;21193;-78
2021/09/16 05:41:31;;;;;;;4.20;2.40;;;16.80;99.90;;;;;;5053220;28;20190;-78
2021/09/16 05:43:57;;;;;;;5.57;2.30;;;16.80;99.90;;;;;;5053576;28;20222;-78
2021/09/16 05:46:23;;;;;;;3.77;2.33;;;16.80;99.90;;;;;;5055691;28;20173;-77
2021/09/16 05:48:49;;;;;;;3.40;2.03;;;16.80;99.90;;;;;;5052345;28;20588;-77
2021/09/16 05:51:15;;;;;;;6.70;2.83;;;16.80;99.90;;;;;;5035064;28;20208;-77
2021/09/16 05:53:41;;;;;;;5.27;2.13;;;16.80;99.90;;;;;;5034944;28;20211;-77
2021/09/16 05:56:06;;;;;;;4.80;2.30;;;16.80;99.90;;;;;;5052836;28;20570;-78
2021/09/16 05:58:32;;;;;;;5.50;2.77;;;16.80;99.90;;;;;;5034544;28;20199;-78
2021/09/16 06:00:58;;;;;;;5.83;2.20;;;16.80;99.90;;;;;;5052966;28;20242;-78
2021/09/16 06:03:23;;;;;;;2.93;2.30;;;16.80;99.90;;;;;;5035040;28;20181;-78
2021/09/16 06:05:49;;;;;;;6.07;2.90;;;16.80;99.90;;;;;;5052493;28;20708;-78
2021/09/16 06:08:15;;;;;;;5.67;2.67;;;16.90;99.90;;;;;;5055232;28;20255;-78
2021/09/16 06:10:41;;;;;;;6.30;2.30;;;16.90;99.90;;;;;;5051783;28;20176;-79
2021/09/16 06:13:07;;;;;;;4.43;2.53;;;16.90;99.90;;;;;;5052787;28;20614;-79
2021/09/16 06:15:33;;;;;;;6.07;2.90;;;17.00;99.90;;;;;;5051980;28;20636;-79
2021/09/16 06:17:59;;;;;;;3.83;2.73;;;17.10;99.90;;;;;;5052262;28;20284;-77
2021/09/16 06:20:24;;;;;;;5.03;2.90;;;17.10;99.90;;;;;;5034670;28;20192;-78
2021/09/16 06:22:50;;;;;;;3.43;1.87;;;17.20;99.90;;;;;;5056851;28;20165;-78
2021/09/16 06:25:16;;;;;;;4.77;2.40;;;17.30;99.90;;;;;;5034422;28;20166;-77
2021/09/16 06:27:43;;;;;;;5.87;2.10;;;17.40;99.90;;;;;;5034093;28;20255;-77
2021/09/16 06:30:10;;;;;;;8.93;2.50;;;17.50;99.90;;;;;;5051754;28;20582;-77
2021/09/16 06:32:37;;;;;;;3.37;2.03;;;17.70;99.90;;;;;;5016995;28;21095;-77
2021/09/16 06:35:07;;;;;;;4.87;2.07;;;17.90;99.90;;;;;;5051976;28;20556;-77
2021/09/16 06:37:33;;;;;;;3.70;1.53;;;18.10;99.90;;;;;;5051469;28;20592;-77
2021/09/16 06:39:59;;;;;;;3.73;1.50;;;18.40;99.90;;;;;;5051946;28;20609;-77
2021/09/16 06:42:24;;;;;;;3.93;1.40;;;18.60;99.90;;;;;;5034127;28;20615;-78
2021/09/16 06:44:50;;;;;;;3.40;1.40;;;18.80;99.90;;;;;;5034125;28;21029;-78
2021/09/16 06:47:16;;;;;;;6.50;1.60;;;18.90;99.90;;;;;;5033573;28;20242;-78
2021/09/16 06:49:48;;;;;;;2.60;1.47;;;19.10;99.90;;;;;;5050232;28;20540;-78
2021/09/16 06:52:16;;;;;;;3.10;1.30;;;19.30;99.90;;;;;;5033691;28;20173;-78
2021/09/16 06:54:43;;;;;;;1.70;1.30;;;19.40;99.90;;;;;;5051866;28;20572;-78
2021/09/16 06:57:09;;;;;;;4.07;1.40;;;19.60;99.90;;;;;;5051231;28;20603;-79
2021/09/16 06:59:35;;;;;;;3.03;1.60;;;19.80;99.90;;;;;;5038213;28;20571;-78
2021/09/16 07:02:00;;;;;;;7.33;2.23;;;19.90;99.90;;;;;;5017023;28;20564;-79
2021/09/16 07:04:26;;;;;;;4.60;1.60;;;20.10;99.90;;;;;;5033531;28;20161;-79
2021/09/16 07:06:52;;;;;;;5.07;2.20;;;20.20;99.90;;;;;;5033268;28;20567;-79
2021/09/16 07:09:17;;;;;;;7.13;2.10;;;20.40;99.90;;;;;;5051403;28;20684;-79
2021/09/16 07:11:43;;;;;;;3.17;1.50;;;20.50;99.90;;;;;;5033599;28;20537;-79
2021/09/16 07:14:09;;;;;;;4.70;2.07;;;20.60;99.90;;;;;;5051347;28;20192;-79
2021/09/16 07:16:35;;;;;;;4.03;2.17;;;20.60;99.90;;;;;;5051593;28;20165;-79
2021/09/16 07:19:01;;;;;;;4.90;2.00;;;20.70;99.90;;;;;;5050796;28;20599;-79
2021/09/16 07:21:27;;;;;;;7.67;2.20;;;20.70;99.90;;;;;;5050233;28;20169;-79
2021/09/16 07:23:52;;;;;;;2.90;1.83;;;20.80;99.90;;;;;;5051378;28;20572;-78
2021/09/16 07:26:18;;;;;;;2.40;1.90;;;20.90;99.90;;;;;;5051301;28;20643;-77
2021/09/16 07:28:44;;;;;;;4.03;2.33;;;21.10;99.90;;;;;;5062672;28;20223;-77
2021/09/16 07:31:09;;;;;;;4.47;2.40;;;21.30;99.90;;;;;;5082862;28;20183;-78
2021/09/16 07:33:35;;;;;;;3.23;1.90;;;21.50;99.90;;;;;;5055183;28;20204;-78
2021/09/16 07:36:01;;;;;;;3.87;2.03;;;21.80;99.90;;;;;;5078844;28;20259;-78
2021/09/16 07:38:27;;;;;;;3.30;1.83;;;22.10;99.90;;;;;;5079349;28;20235;-79
2021/09/16 07:40:52;;;;;;;4.23;2.03;;;22.50;99.90;;;;;;5001761;28;20205;-79
2021/09/16 07:43:18;;;;;;;2.93;1.80;;;23.10;99.90;;;;;;4940146;28;20223;-79
2021/09/16 07:45:44;;;;;;;3.30;2.00;;;23.80;99.90;;;;;;4900083;28;20270;-78
2021/09/16 07:48:09;;;;;;;3.50;2.10;;;24.70;99.90;;;;;;4809526;29;20228;-78
2021/09/16 07:52:39;;;;;;;8.40;2.13;;;25.30;99.90;;;;;;5146357;27;20710;-78
2021/09/16 07:55:05;;;;;;;2.77;2.10;;;25.80;99.90;;;;;;5128108;27;20611;-77
2021/09/16 07:57:31;;;;;;;5.77;1.90;;;25.80;99.90;;;;;;5121885;28;20344;-78
2021/09/16 07:59:57;;;;;;;4.30;2.63;;;25.80;99.90;;;;;;5127000;28;20691;-77
2021/09/16 08:02:23;;;;;;;4.67;2.50;;;25.70;99.90;;;;;;5094437;28;20268;-79
2021/09/16 08:04:49;;;;;;;3.77;2.33;;;25.50;99.90;;;;;;5042048;28;20291;-78
2021/09/16 08:07:15;;;;;;;2.70;2.30;;;25.30;99.90;;;;;;4896149;28;20633;-77
2021/09/16 08:09:41;;;;;;;3.93;2.60;;;25.20;99.90;;;;;;4815723;29;20744;-78
2021/09/16 08:12:07;;;;;;;3.70;2.80;;;24.90;99.90;;;;;;4627213;29;20231;-77
2021/09/16 08:16:36;;;;;;;2.70;1.90;;;24.70;99.90;;;;;;5149216;27;21152;-78
2021/09/16 08:19:03;;;;;;;5.83;2.70;;;24.40;99.90;;;;;;4988013;28;1257880;-78
2021/09/16 08:21:29;;;;;;;4.00;2.63;;;24.30;99.90;;;;;;5048560;28;20185;-78
2021/09/16 08:23:55;;;;;;;3.20;2.77;;;24.20;99.90;;;;;;5047355;28;21033;-79
2021/09/16 08:26:22;;;;;;;6.50;2.83;;;24.10;99.90;;;;;;5047432;28;20211;-79
2021/09/16 08:28:48;;;;;;;5.93;3.60;;;24.00;99.90;;;;;;5047736;28;20276;-79
2021/09/16 08:31:14;;;;;;;4.83;3.20;;;24.00;99.90;;;;;;5048075;28;20568;-79
2021/09/16 08:33:40;;;;;;;3.73;2.87;;;23.90;99.90;;;;;;5046905;28;20582;-79
2021/09/16 08:36:06;;;;;;;6.73;3.27;;;23.90;99.90;;;;;;5048082;28;20197;-78
2021/09/16 08:38:32;;;;;;;4.87;3.47;;;23.80;99.90;;;;;;5046848;28;20698;-78
2021/09/16 08:40:58;;;;;;;5.33;3.30;;;23.80;99.90;;;;;;5046559;28;20607;-78
2021/09/16 08:43:29;;;;;;;5.93;3.50;;;23.80;99.90;;;;;;5029896;28;21273;-78
2021/09/16 08:45:55;;;;;;;5.00;2.83;;;23.90;99.90;;;;;;5047918;28;20925;-78
2021/09/16 08:48:21;;;;;;;4.70;2.73;;;24.10;99.90;;;;;;5047288;28;21181;-79
2021/09/16 08:50:47;;;;;;;6.20;2.17;;;24.30;99.90;;;;;;5046747;28;20584;-79
2021/09/16 08:53:17;;;;;;;2.87;2.40;;;24.50;99.90;;;;;;5047757;28;20502;-79
2021/09/16 08:55:45;;;;;;;8.10;2.40;;;24.60;99.90;;;;;;5046764;28;20987;-79
2021/09/16 08:58:12;;;;;;;3.93;1.93;;;24.70;99.90;;;;;;5047379;28;20619;-78
2021/09/16 09:00:38;;;;;;;2.30;1.47;;;24.70;99.90;;;;;;5046623;28;20575;-78
2021/09/16 09:03:04;;;;;;;3.70;2.90;;;24.70;99.90;;;;;;5047779;28;20567;-78
2021/09/16 09:05:30;;;;;;;2.70;2.00;;;24.60;99.90;;;;;;5047762;28;20927;-78
2021/09/16 09:07:59;;;;;;;3.93;1.77;;;24.60;99.90;;;;;;5046166;28;21204;-78
2021/09/16 09:10:34;;;;;;;4.20;2.00;;;24.50;99.90;;;;;;5047790;28;21032;-79
2021/09/16 09:13:01;;;;;;;4.13;2.60;;;24.50;99.90;;;;;;5046484;28;20555;-79
2021/09/16 09:15:27;;;;;;;2.30;1.67;;;24.50;99.90;;;;;;5046029;28;20631;-79
2021/09/16 09:18:12;;;;;;;3.70;2.50;;;24.40;99.90;;;;;;5047199;28;20607;-79
2021/09/16 09:21:05;;;;;;;3.17;2.00;;;24.30;99.90;;;;;;5029887;28;20574;-79
2021/09/16 09:23:34;;;;;;;3.47;2.07;;;24.30;99.90;;;;;;5029892;28;20568;-79
2021/09/16 09:26:28;;;;;;;3.60;1.80;;;24.30;99.90;;;;;;5045235;28;20916;-79
2021/09/16 09:29:11;;;;;;;3.20;1.50;;;24.20;99.90;;;;;;5016314;28;20600;-78
2021/09/16 09:31:43;;;;;;;2.40;1.20;;;24.20;99.90;;;;;;5017146;28;20572;-78
2021/09/16 09:34:26;;;;;;;3.97;1.60;;;24.20;99.90;;;;;;5001577;28;20578;-79
2021/09/16 09:37:04;;;;;;;4.23;1.90;;;24.40;99.90;;;;;;5015180;28;20611;-79
2021/09/16 09:39:29;;;;;;;3.70;2.43;;;24.90;99.90;;;;;;5022959;28;20568;-79
2021/09/16 09:42:13;;;;;;;3.47;1.57;;;25.50;99.90;;;;;;5008354;28;21206;-78
2021/09/16 09:44:39;;;;;;;3.57;1.63;;;26.10;99.90;;;;;;5014127;28;20193;-79
2021/09/16 09:47:05;;;;;;;2.57;1.50;;;26.80;99.90;;;;;;5010422;28;20604;-79
2021/09/16 09:49:34;;;;;;;4.13;1.53;;;27.60;99.90;;;;;;5015519;28;20189;-79
2021/09/16 09:52:01;;;;;;;3.70;1.63;;;28.50;99.90;;;;;;5033274;28;20283;-79
2021/09/16 09:54:33;;;;;;;3.30;2.07;;;29.20;99.90;;;;;;5027906;28;20638;-79
2021/09/16 09:57:18;;;;;;;7.07;2.07;;;29.80;99.90;;;;;;5013512;28;20583;-79
2021/09/16 10:00:07;;;;;;;2.50;1.57;;;30.50;99.90;;;;;;5013147;28;21204;-79
2021/09/16 10:02:54;;;;;;;4.07;1.43;;;31.30;99.90;;;;;;5015281;28;21276;-79
2021/09/16 10:05:30;;;;;;;3.90;1.47;;;31.70;99.90;;;;;;5033288;28;20571;-79
2021/09/16 10:08:06;;;;;;;3.00;1.27;;;32.00;99.90;;;;;;5015152;28;20603;-79
2021/09/16 10:10:49;;;;;;;2.80;1.53;;;32.20;99.60;;;;;;5000825;28;20581;-78
2021/09/16 10:13:18;;;;;;;2.40;1.20;;;32.40;99.10;;;;;;5013730;28;20591;-78
2021/09/16 10:15:52;;;;;;;2.47;1.30;;;32.60;98.10;;;;;;5013176;28;20618;-78
2021/09/16 10:18:18;;;;;;;1.90;1.20;;;32.70;97.00;;;;;;5012643;28;20672;-79
2021/09/16 10:20:45;;;;;;;2.90;1.60;;;32.80;96.20;;;;;;4979500;28;20571;-78
2021/09/16 10:23:12;;;;;;;2.57;1.90;;;32.60;94.60;;;;;;5013253;28;20626;-78
2021/09/16 10:25:47;;;;;;;2.20;1.20;;;32.20;92.40;;;;;;4995541;28;20579;-78
2021/09/16 10:28:13;;;;;;;4.47;2.20;;;31.60;91.10;;;;;;4995263;28;20600;-78
2021/09/16 10:30:47;;;;;;;6.10;0.90;;;30.80;88.80;;;;;;4995538;28;20937;-78
2021/09/16 10:33:19;;;;;;;2.17;1.20;;;30.10;89.40;;;;;;5013028;28;20571;-79
2021/09/16 10:35:56;;;;;;;2.50;1.53;;;29.40;90.10;;;;;;4994825;28;20671;-79
2021/09/16 10:38:40;;;;;;;3.20;1.83;;;28.70;89.60;;;;;;5010893;28;20956;-78
2021/09/16 10:41:10;;;;;;;3.90;1.83;;;28.00;90.20;;;;;;5012086;28;20572;-79
2021/09/16 10:43:37;;;;;;;3.27;1.87;;;27.50;91.10;;;;;;5013373;28;20565;-78
2021/09/16 10:46:23;;;;;;;3.20;1.83;;;27.20;92.50;;;;;;5021394;28;20569;-78
2021/09/16 10:48:49;;;;;;;3.67;1.90;;;27.30;93.40;;;;;;5014730;28;20620;-78
2021/09/16 10:51:43;;;;;;;3.90;2.50;;;27.50;94.00;;;;;;5015674;28;20965;-78
2021/09/16 10:54:26;;;;;;;1.80;1.50;;;27.50;93.80;;;;;;4998758;28;20984;-78
2021/09/16 10:57:03;;;;;;;2.30;1.20;;;27.60;93.20;;;;;;5014037;28;20588;-78
2021/09/16 10:59:47;;;;;;;2.70;1.53;;;27.60;92.40;;;;;;5014094;28;20950;-79
2021/09/16 11:02:19;;;;;;;5.47;2.40;;;27.70;93.50;;;;;;5012294;28;20561;-78
2021/09/16 11:04:54;;;;;;;3.10;2.07;;;27.80;93.10;;;;;;5000282;28;20648;-78
2021/09/16 11:07:32;;;;;;;2.30;1.37;;;27.80;92.90;;;;;;5014003;28;20957;-78
2021/09/16 11:10:13;;;;;;;2.73;1.93;;;28.00;93.40;;;;;;5031767;28;20944;-78
2021/09/16 11:12:43;;;;;;;2.07;1.40;;;28.30;93.50;;;;;;5031466;28;20568;-78
2021/09/16 11:15:10;;;;;;;1.93;1.23;;;28.80;94.50;;;;;;5030214;28;20694;-78
2021/09/16 11:17:37;;;;;;;2.70;1.90;;;29.30;94.10;;;;;;5030695;28;21142;-79
2021/09/16 11:20:04;;;;;;;2.00;1.30;;;29.50;92.50;;;;;;5031063;28;20561;-79
2021/09/16 11:22:31;;;;;;;2.60;1.23;;;29.50;91.20;;;;;;4997241;28;20576;-79
2021/09/16 11:24:58;;;;;;;2.27;1.30;;;29.30;90.10;;;;;;5031097;28;20565;-79
2021/09/16 11:27:36;;;;;;;1.70;1.30;;;29.30;90.70;;;;;;5012996;28;20600;-78
2021/09/16 11:30:04;;;;;;;3.30;1.10;;;29.30;91.30;;;;;;5030699;28;20576;-78
2021/09/16 11:32:35;;;;;;;4.73;1.20;;;29.60;90.90;;;;;;5013588;28;20560;-78
2021/09/16 11:35:04;;;;;;;2.43;1.43;;;29.80;90.80;;;;;;5031000;28;20615;-79
2021/09/16 11:37:37;;;;;;;4.00;2.27;;;29.80;90.10;;;;;;4996793;28;20657;-79
2021/09/16 11:40:14;;;;;;;3.60;1.47;;;29.70;88.00;;;;;;5013455;28;21201;-79
2021/09/16 11:42:42;;;;;;;1.77;0.97;;;29.50;86.60;;;;;;5031436;28;20580;-78
2021/09/16 11:45:13;;;;;;;2.00;1.00;;;29.20;85.60;;;;;;5012332;28;20603;-78
2021/09/16 11:47:52;;;;;;;3.03;1.30;;;28.80;85.00;;;;;;4997358;28;21044;-78
2021/09/16 11:50:29;;;;;;;2.67;1.40;;;28.60;87.10;;;;;;5030295;28;20564;-78
2021/09/16 11:53:12;;;;;;;3.53;1.20;;;28.50;87.50;;;;;;4992760;28;20583;-79
2021/09/16 11:55:43;;;;;;;1.80;0.80;;;28.40;89.00;;;;;;5011120;28;20656;-78
2021/09/16 11:58:20;;;;;;;2.57;1.00;;;28.40;86.70;;;;;;4976705;28;20604;-78
2021/09/16 12:00:50;;;;;;;1.87;1.00;;;28.20;85.60;;;;;;4977893;28;20596;-78
2021/09/16 12:03:28;;;;;;;2.40;0.90;;;27.90;84.80;;;;;;5011327;28;20576;-78
2021/09/16 12:05:58;;;;;;;2.30;1.40;;;27.60;84.30;;;;;;4977664;28;20585;-78
2021/09/16 12:08:32;;;;;;;2.27;1.20;;;27.40;84.60;;;;;;5010992;28;20599;-77
2021/09/16 12:11:05;;;;;;;3.63;1.40;;;27.20;84.90;;;;;;4993952;28;20572;-77
2021/09/16 12:13:40;;;;;;;3.93;1.50;;;27.00;85.60;;;;;;4993577;28;20608;-77
2021/09/16 12:16:18;;;;;;;2.63;1.20;;;26.80;86.00;;;;;;5011388;28;20624;-77
2021/09/16 12:18:53;;;;;;;2.67;1.17;;;26.70;86.60;;;;;;5021730;28;20612;-77
2021/09/16 12:21:22;;;;;;;2.03;1.00;;;26.50;87.10;;;;;;5012751;28;20607;-77
2021/09/16 12:23:51;;;;;;;3.60;1.50;;;26.40;87.80;;;;;;5060996;28;20629;-78
2021/09/16 12:26:19;;;;;;;2.47;1.57;;;26.30;87.80;;;;;;5034851;28;20600;-77
2021/09/16 12:29:03;;;;;;;3.60;1.23;;;26.10;87.80;;;;;;5017972;28;20724;-77
2021/09/16 12:31:35;;;;;;;2.13;1.10;;;25.90;87.90;;;;;;4957782;28;20924;-77
2021/09/16 12:34:06;;;;;;;1.97;0.80;;;25.80;87.90;;;;;;4946122;28;20588;-77
2021/09/16 12:36:37;;;;;;;5.10;1.07;;;25.70;87.80;;;;;;4830708;29;21081;-77
2021/09/16 12:39:12;;;;;;;2.53;1.00;;;25.50;88.60;;;;;;4743826;29;20617;-77
2021/09/16 12:44:03;;;;;;;1.90;0.90;;;25.50;90.00;;;;;;5148174;27;20768;-77
2021/09/16 12:46:39;;;;;;;1.90;0.93;;;25.50;90.40;;;;;;5105802;28;20589;-79
2021/09/16 12:49:04;;;;;;;2.20;1.30;;;25.50;90.60;;;;;;5087580;28;20605;-79
2021/09/16 12:51:33;;;;;;;2.20;1.10;;;25.50;90.80;;;;;;5038156;28;20595;-79
2021/09/16 12:54:01;;;;;;;2.90;1.03;;;25.50;90.70;;;;;;5016438;28;20213;-79
2021/09/16 12:56:31;;;;;;;2.23;1.03;;;25.50;90.90;;;;;;4974685;28;21104;-79
2021/09/16 12:58:58;;;;;;;3.57;1.00;;;25.60;91.10;;;;;;4951941;28;20615;-80